Airfield :
LOGIN :

Register | Disclaimer

   EN    FR    IT 

 










Legend :    VFR   Marginal VFR   IFR   Intensive IFR   Very Intensive IFR
Visi :
Ceiling :
>= 8 km
>= 3000ft
5 to 8 km
1000 to 3000 ft
1500m to 5 km
500 to 1000 ft
800 to 1500m
200 to 500 ft
< 800m
< 200 ft
Symbols :   Thunderstorms  Fog  Heavy snow  Heavy precipitations  Wind > 20 kt
SIGMETs :     Misc.  Thunderstorms  Icing  Turbulence  Mountain Waves  Volcanic Ashes







- Airport Elevation : 13 ft
- IATA code : LYX
- Download approach charts


EGMD - Lydd

CURRENT METAR :
  • 160850Z 26009KT CAVOK 00/M01 Q1016

EXPIRED METARs :
  • 160820Z 27008KT CAVOK M01/M02 Q1016
  • 160750Z AUTO 27008KT 9999 NCD M01/M02 Q1015
  • 160720Z AUTO 27007KT 9999 NCD M01/M02 Q1015
  • 160650Z AUTO 28007KT 9999 NCD M01/M02 Q1014
  • 160620Z AUTO 29008KT 9999 NCD M00/M02 Q1014
  • 160550Z AUTO 30008KT 9999 NCD 01/M01 Q1014

TAF TAF EGMD
Valid from the 16 at 09:00 until the 16 at 18:00 UTC


160801Z 1609/1618 30009KT 9999 FEW030
PROB30
TEMPO 1616/1618 9000 -RA BKN012
ATIS : +44 1797 322 422
No reported NOTAMs for that airfield.



MET'MAP, your aeronautical weather chart ! - Copyright ORBIFLY December 2007 - Disclaimer

ORBIFLY MET'MAP TEAM :

Programming & Development : Alexandra Zaïnal
Concept & Development : Baudouin d'Aumeries
Co-Development & Prog : Marc-Olivier Méhu
Technical & hardware support : Manuel Goepfert

Contact : metmap@orbifly.com




SOURCES & CREDITS :

   NOAA